createdAt,value
2022-12-18T00:00:10.983Z,-6.90
2022-12-18T00:02:42.196Z,-7.00
2022-12-18T00:05:10.818Z,-6.90
2022-12-18T00:07:39.278Z,-7.00
2022-12-18T00:10:10.666Z,-7.00
2022-12-18T00:12:38.836Z,-7.10
2022-12-18T00:15:08.713Z,-7.10
2022-12-18T00:17:37.505Z,-7.10
2022-12-18T00:20:07.136Z,-7.10
2022-12-18T00:22:36.132Z,-7.10
2022-12-18T00:25:04.836Z,-7.00
2022-12-18T00:27:34.602Z,-7.00
2022-12-18T00:30:02.976Z,-7.10
2022-12-18T00:32:31.670Z,-7.10
2022-12-18T00:35:00.084Z,-7.20
2022-12-18T00:37:28.668Z,-7.20
2022-12-18T00:39:57.697Z,-7.20
2022-12-18T00:42:44.077Z,-7.20
2022-12-18T00:45:14.551Z,-7.30
2022-12-18T00:47:43.381Z,-7.40
2022-12-18T00:50:12.104Z,-7.30
2022-12-18T00:52:43.620Z,-7.30
2022-12-18T00:55:13.220Z,-7.40
2022-12-18T00:57:42.156Z,-7.40
2022-12-18T01:00:16.422Z,-7.50
2022-12-18T01:02:45.372Z,-7.50
2022-12-18T01:05:17.222Z,-7.40
2022-12-18T01:07:45.359Z,-7.40
2022-12-18T01:10:15.532Z,-7.40
2022-12-18T01:12:44.140Z,-7.40
2022-12-18T01:15:16.320Z,-7.20
2022-12-18T01:17:45.283Z,-7.30
2022-12-18T01:20:14.844Z,-7.30
2022-12-18T01:22:43.006Z,-7.30
2022-12-18T01:25:11.979Z,-7.30
2022-12-18T01:27:40.195Z,-7.20
2022-12-18T01:30:11.355Z,-7.20
2022-12-18T01:32:41.026Z,-7.20
2022-12-18T01:35:10.667Z,-7.10
2022-12-18T01:37:39.114Z,-7.00
2022-12-18T01:40:09.874Z,-7.00
2022-12-18T01:42:38.191Z,-7.00
2022-12-18T01:45:26.038Z,-7.00
2022-12-18T01:48:01.332Z,-6.90
2022-12-18T01:50:35.696Z,-6.90
2022-12-18T01:53:11.283Z,-6.80
2022-12-18T01:55:54.328Z,-6.80
2022-12-18T01:58:33.017Z,-6.80
2022-12-18T02:01:01.580Z,-6.80
2022-12-18T02:03:31.724Z,-6.80
2022-12-18T02:06:12.256Z,-6.80
2022-12-18T02:08:50.875Z,-6.80
2022-12-18T02:11:30.048Z,-6.80
2022-12-18T02:14:15.034Z,-6.80
2022-12-18T02:16:54.923Z,-6.80
2022-12-18T02:20:03.511Z,-6.80
2022-12-18T02:22:51.413Z,-6.70
2022-12-18T02:25:47.172Z,-6.80
2022-12-18T02:28:23.099Z,-6.80
2022-12-18T02:30:58.413Z,-6.80
2022-12-18T02:33:29.704Z,-6.90
2022-12-18T02:36:02.297Z,-6.80
2022-12-18T02:38:34.523Z,-6.80
2022-12-18T02:41:09.748Z,-6.90
2022-12-18T02:43:39.958Z,-6.90
2022-12-18T02:46:32.400Z,-6.90
2022-12-18T02:49:32.940Z,-6.90
2022-12-18T02:52:21.275Z,-7.00
2022-12-18T02:55:10.300Z,-7.00
2022-12-18T02:57:51.004Z,-7.10
2022-12-18T03:00:34.022Z,-7.00
2022-12-18T03:03:15.247Z,-7.00
2022-12-18T03:05:52.950Z,-7.00
2022-12-18T03:08:25.794Z,-7.10
2022-12-18T03:11:03.920Z,-7.20
2022-12-18T03:13:39.411Z,-7.30
2022-12-18T03:16:17.513Z,-7.20
2022-12-18T03:18:49.656Z,-7.30
2022-12-18T03:21:23.616Z,-7.30
2022-12-18T03:23:56.170Z,-7.30
2022-12-18T03:26:31.354Z,-7.30
2022-12-18T03:29:06.899Z,-7.30
2022-12-18T03:31:43.076Z,-7.30
2022-12-18T03:34:18.779Z,-7.30
2022-12-18T03:36:48.644Z,-7.40
2022-12-18T03:39:18.020Z,-7.30
2022-12-18T03:42:03.661Z,-7.30
2022-12-18T03:44:51.825Z,-7.30
2022-12-18T03:47:31.204Z,-7.40
2022-12-18T03:50:15.737Z,-7.50
2022-12-18T03:52:54.865Z,-7.40
2022-12-18T03:55:27.518Z,-7.50
2022-12-18T03:58:03.892Z,-7.50
2022-12-18T04:00:42.992Z,-7.40
2022-12-18T04:03:16.032Z,-7.50
2022-12-18T04:05:52.460Z,-7.50
2022-12-18T04:08:26.283Z,-7.30
2022-12-18T04:11:04.079Z,-7.30
2022-12-18T04:13:38.782Z,-7.30
2022-12-18T04:16:11.880Z,-7.20
2022-12-18T04:18:44.404Z,-7.20
2022-12-18T04:21:13.394Z,-7.20
2022-12-18T04:23:41.910Z,-7.10
2022-12-18T04:26:10.294Z,-7.00
2022-12-18T04:28:59.273Z,-7.00
2022-12-18T04:31:29.900Z,-6.90
2022-12-18T04:34:00.415Z,-7.00
2022-12-18T04:36:30.360Z,-7.20
2022-12-18T04:38:59.846Z,-7.20
2022-12-18T04:41:28.444Z,-7.20
2022-12-18T04:43:56.807Z,-7.20
2022-12-18T04:46:25.796Z,-7.20
2022-12-18T04:48:54.017Z,-7.30
2022-12-18T04:51:26.667Z,-7.40
2022-12-18T04:53:55.211Z,-7.40
2022-12-18T04:56:24.463Z,-7.40
2022-12-18T04:58:52.954Z,-7.40
2022-12-18T05:01:21.668Z,-7.30
2022-12-18T05:03:50.801Z,-7.30
2022-12-18T05:06:19.366Z,-7.30
2022-12-18T05:08:48.968Z,-7.30
2022-12-18T05:11:18.060Z,-7.40
2022-12-18T05:13:47.461Z,-7.40
2022-12-18T05:16:16.712Z,-7.40
2022-12-18T05:18:45.582Z,-7.40
2022-12-18T05:22:29.116Z,-7.50
2022-12-18T05:24:59.095Z,-7.70
2022-12-18T05:27:27.281Z,-7.70
2022-12-18T05:29:55.812Z,-7.70
2022-12-18T05:32:24.261Z,-7.70
2022-12-18T05:34:53.184Z,-7.70
2022-12-18T05:37:21.797Z,-7.80
2022-12-18T05:39:50.532Z,-7.90
2022-12-18T05:42:20.521Z,-8.00
2022-12-18T05:44:48.709Z,-8.00
2022-12-18T05:47:17.646Z,-7.90
2022-12-18T05:49:45.841Z,-7.80
2022-12-18T05:52:14.742Z,-7.90
2022-12-18T05:54:42.964Z,-7.90
2022-12-18T05:57:11.639Z,-7.90
2022-12-18T05:59:41.430Z,-8.00
2022-12-18T06:02:10.336Z,-8.00
2022-12-18T06:04:38.678Z,-8.00
2022-12-18T06:07:07.571Z,-8.10
2022-12-18T06:09:35.757Z,-8.10
2022-12-18T06:12:03.924Z,-8.10
2022-12-18T06:14:32.376Z,-8.10
2022-12-18T06:17:02.032Z,-8.20
2022-12-18T06:19:30.294Z,-8.30
2022-12-18T06:22:00.034Z,-8.30
2022-12-18T06:24:28.555Z,-8.20
2022-12-18T06:26:56.728Z,-8.30
2022-12-18T06:29:25.173Z,-8.40
2022-12-18T06:31:53.761Z,-8.40
2022-12-18T06:34:23.470Z,-8.20
2022-12-18T06:36:52.136Z,-8.40
2022-12-18T06:39:20.524Z,-8.40
2022-12-18T06:41:49.017Z,-8.40
2022-12-18T06:44:17.406Z,-8.30
2022-12-18T06:46:45.642Z,-8.40
2022-12-18T06:49:14.352Z,-8.40
2022-12-18T06:51:44.659Z,-8.50
2022-12-18T06:54:14.484Z,-8.40
2022-12-18T06:56:42.633Z,-8.20
2022-12-18T06:59:10.828Z,-8.40
2022-12-18T07:01:39.111Z,-8.40
2022-12-18T07:04:07.969Z,-8.20
2022-12-18T07:06:36.199Z,-8.30
2022-12-18T07:09:06.245Z,-8.40
2022-12-18T07:11:35.724Z,-8.30
2022-12-18T07:14:04.425Z,-8.10
2022-12-18T07:16:32.728Z,-8.20
2022-12-18T07:19:00.927Z,-8.30
2022-12-18T07:21:29.321Z,-8.20
2022-12-18T07:23:58.457Z,-8.20
2022-12-18T07:26:28.928Z,-8.20
2022-12-18T07:28:59.414Z,-8.20
2022-12-18T07:31:29.327Z,-8.30
2022-12-18T07:33:58.416Z,-8.30
2022-12-18T07:36:27.073Z,-8.30
2022-12-18T07:38:55.400Z,-8.20
2022-12-18T07:41:24.697Z,-8.20
2022-12-18T07:43:54.391Z,-8.30
2022-12-18T07:46:23.071Z,-8.30
2022-12-18T07:48:51.906Z,-8.40
2022-12-18T07:51:21.664Z,-8.20
2022-12-18T07:53:52.190Z,-8.40
2022-12-18T07:56:27.723Z,-8.40
2022-12-18T07:59:00.491Z,-8.40
2022-12-18T08:01:29.469Z,-8.40
2022-12-18T08:04:00.158Z,-8.20
2022-12-18T08:06:28.725Z,-8.20
2022-12-18T08:08:57.968Z,-8.10
2022-12-18T08:11:30.021Z,-8.00
2022-12-18T08:14:00.726Z,-7.90
2022-12-18T08:16:29.945Z,-7.90
2022-12-18T08:18:58.244Z,-7.80
2022-12-18T08:21:28.984Z,-7.80
2022-12-18T08:24:00.642Z,-7.70
2022-12-18T08:26:32.497Z,-7.70
2022-12-18T08:29:03.225Z,-7.80
2022-12-18T08:31:33.837Z,-7.80
2022-12-18T08:34:02.116Z,-7.80
2022-12-18T08:36:30.265Z,-7.70
2022-12-18T08:38:59.269Z,-7.50
2022-12-18T08:41:28.853Z,-7.30
2022-12-18T08:44:15.117Z,-7.20
2022-12-18T08:46:46.917Z,-7.10
2022-12-18T08:49:15.702Z,-6.90
2022-12-18T08:51:44.166Z,-6.80
2022-12-18T08:54:14.929Z,-6.60
2022-12-18T08:56:43.492Z,-6.60
2022-12-18T08:59:19.028Z,-6.50
2022-12-18T09:01:50.146Z,-6.50
2022-12-18T09:04:19.583Z,-6.40
2022-12-18T09:06:48.413Z,-6.40
2022-12-18T09:09:17.078Z,-6.40
2022-12-18T09:11:45.634Z,-6.40
2022-12-18T09:14:14.413Z,-6.30
2022-12-18T09:16:43.085Z,-6.30
2022-12-18T09:19:13.203Z,-6.20
2022-12-18T09:21:47.464Z,-6.20
2022-12-18T10:51:51.620Z,0.60
2022-12-18T10:54:27.505Z,1.10
2022-12-18T10:57:43.414Z,1.60
2022-12-18T11:00:34.306Z,1.90
2022-12-18T11:03:03.856Z,2.20
2022-12-18T11:05:41.066Z,2.60
2022-12-18T11:08:36.071Z,2.60
2022-12-18T11:11:24.286Z,2.80
2022-12-18T11:14:04.831Z,3.10
2022-12-18T11:19:55.139Z,3.50
2022-12-18T11:22:30.592Z,3.90
2022-12-18T11:27:59.376Z,4.30
2022-12-18T11:30:32.300Z,4.40
2022-12-18T11:33:12.700Z,4.50
2022-12-18T11:35:52.617Z,4.60
2022-12-18T11:38:27.849Z,4.80
2022-12-18T11:41:04.437Z,4.80
2022-12-18T11:43:41.356Z,4.70
2022-12-18T11:46:19.825Z,4.40
2022-12-18T11:48:57.028Z,4.20
2022-12-18T11:51:35.704Z,4.20
2022-12-18T11:54:15.812Z,4.00
2022-12-18T11:56:53.478Z,4.20
2022-12-18T11:59:35.628Z,3.90
2022-12-18T12:02:38.449Z,3.90
2022-12-18T12:05:30.935Z,3.80
2022-12-18T12:08:09.631Z,3.40
2022-12-18T12:10:57.640Z,2.80
2022-12-18T12:13:48.416Z,2.20
2022-12-18T12:16:27.312Z,1.90
2022-12-18T12:19:18.873Z,1.90
2022-12-18T12:21:58.025Z,1.60
2022-12-18T12:24:47.320Z,1.30
2022-12-18T12:27:30.100Z,1.10
2022-12-18T12:30:14.003Z,1.20
2022-12-18T12:33:07.241Z,0.60
2022-12-18T12:35:53.492Z,0.40
2022-12-18T12:38:31.481Z,0.20
2022-12-18T12:41:30.241Z,0.10
2022-12-18T12:44:04.310Z,-0.10
2022-12-18T12:46:43.949Z,0.00
2022-12-18T12:49:19.636Z,0.00
2022-12-18T12:51:59.391Z,0.00
2022-12-18T12:54:31.912Z,-0.10
2022-12-18T12:57:12.062Z,-0.20
2022-12-18T12:59:52.566Z,-0.20
2022-12-18T13:02:34.191Z,-0.30
2022-12-18T13:05:19.436Z,-0.20
2022-12-18T13:07:55.879Z,-0.30
2022-12-18T13:10:36.146Z,-0.20
2022-12-18T13:13:07.329Z,0.00
2022-12-18T13:15:42.276Z,-0.20
2022-12-18T13:18:20.766Z,-0.30
2022-12-18T13:21:03.251Z,0.50
2022-12-18T13:23:37.331Z,-0.20
2022-12-18T13:26:35.290Z,-0.20
2022-12-18T13:29:06.443Z,-0.30
2022-12-18T13:32:04.766Z,-0.30
2022-12-18T13:34:37.244Z,-0.10
2022-12-18T13:37:46.292Z,-0.30
2022-12-18T13:40:58.898Z,-0.30
2022-12-18T13:43:48.590Z,-0.30
2022-12-18T13:46:31.396Z,-0.40
2022-12-18T13:49:07.647Z,-0.40
2022-12-18T13:51:43.806Z,-0.50
2022-12-18T13:54:23.466Z,-0.60
2022-12-18T13:56:52.831Z,-0.50
2022-12-18T13:59:24.997Z,-0.60
2022-12-18T14:01:57.583Z,-0.70
2022-12-18T14:04:29.931Z,-0.70
2022-12-18T14:07:07.820Z,-0.70
2022-12-18T14:09:43.034Z,-0.70
2022-12-18T14:12:37.304Z,-0.80
2022-12-18T14:15:23.840Z,-0.90
2022-12-18T14:17:54.674Z,-0.90
2022-12-18T14:20:24.035Z,-0.70
2022-12-18T14:22:54.281Z,-1.00
2022-12-18T14:25:26.595Z,-1.00
2022-12-18T14:28:12.418Z,-1.10
2022-12-18T14:30:43.674Z,-1.10
2022-12-18T14:33:16.057Z,-1.10
2022-12-18T14:35:56.402Z,-1.30
2022-12-18T14:38:33.049Z,-1.30
2022-12-18T14:41:03.991Z,-1.40
2022-12-18T14:43:36.201Z,-1.50
2022-12-18T14:46:08.253Z,-1.60
2022-12-18T14:48:41.159Z,-1.60
2022-12-18T14:51:19.975Z,-1.70
2022-12-18T14:53:57.115Z,-1.70
2022-12-18T14:56:28.535Z,-1.80
2022-12-18T14:59:00.994Z,-2.00
2022-12-18T15:01:35.574Z,-2.10
2022-12-18T15:04:07.288Z,-2.10
2022-12-18T15:06:41.020Z,-2.10
2022-12-18T15:09:27.424Z,-1.40
2022-12-18T15:12:00.226Z,-2.10
2022-12-18T15:14:41.896Z,-2.30
2022-12-18T15:17:20.847Z,-2.30
2022-12-18T15:19:54.095Z,-2.30
2022-12-18T15:22:28.964Z,-2.30
2022-12-18T15:25:00.933Z,-2.40
2022-12-18T15:27:34.565Z,-2.50
2022-12-18T15:30:23.670Z,-2.50
2022-12-18T15:32:55.512Z,-2.60
2022-12-18T15:35:28.171Z,-2.70
2022-12-18T15:37:57.123Z,-2.70
2022-12-18T15:40:27.398Z,-2.70
2022-12-18T15:43:15.848Z,-2.80
2022-12-18T15:45:44.044Z,-2.80
2022-12-18T15:48:22.520Z,-2.90
2022-12-18T15:50:52.883Z,-2.90
2022-12-18T15:53:22.406Z,-3.00
2022-12-18T15:56:09.813Z,-3.00
2022-12-18T15:58:39.476Z,-3.00
2022-12-18T16:01:14.851Z,-3.00
2022-12-18T16:03:45.407Z,-3.00
2022-12-18T16:06:14.142Z,-3.00
2022-12-18T16:08:43.236Z,-3.00
2022-12-18T16:11:39.379Z,-2.90
2022-12-18T16:14:17.879Z,-2.90
2022-12-18T16:16:48.013Z,-2.90
2022-12-18T16:19:17.106Z,-2.80
2022-12-18T16:21:46.530Z,-2.80
2022-12-18T16:24:18.615Z,-2.70
2022-12-18T16:26:48.946Z,-2.80
2022-12-18T16:29:17.333Z,-2.70
2022-12-18T16:31:47.023Z,-2.70
2022-12-18T16:34:23.468Z,-2.60
2022-12-18T16:37:01.608Z,-2.60
2022-12-18T16:39:34.844Z,-2.60
2022-12-18T16:42:06.560Z,-2.70
2022-12-18T16:44:35.172Z,-2.60
2022-12-18T16:47:04.993Z,-2.60
2022-12-18T16:49:34.867Z,-2.50
2022-12-18T16:52:05.120Z,-2.40
2022-12-18T16:54:35.584Z,-2.40
2022-12-18T16:57:06.226Z,-2.30
2022-12-18T16:59:37.052Z,-2.30
2022-12-18T17:02:05.654Z,-2.30
2022-12-18T17:04:34.213Z,-2.20
2022-12-18T17:07:04.741Z,-2.20
2022-12-18T17:09:33.276Z,-2.10
2022-12-18T17:12:04.429Z,-2.20
2022-12-18T17:14:35.635Z,-2.20
2022-12-18T17:17:21.508Z,-2.20
2022-12-18T17:19:53.778Z,-2.20
2022-12-18T17:22:23.226Z,-2.20
2022-12-18T17:24:52.020Z,-2.20
2022-12-18T17:27:20.740Z,-2.20
2022-12-18T17:29:50.497Z,-2.20
2022-12-18T17:32:20.103Z,-2.10
2022-12-18T17:34:48.959Z,-2.10
2022-12-18T17:37:17.910Z,-2.10
2022-12-18T17:39:46.254Z,-2.10
2022-12-18T17:42:16.217Z,-2.10
2022-12-18T17:44:45.049Z,-2.10
2022-12-18T17:47:15.983Z,-2.10
2022-12-18T17:49:45.034Z,-2.10
2022-12-18T17:52:13.891Z,-2.20
2022-12-18T17:54:43.789Z,-2.20
2022-12-18T17:57:12.829Z,-2.20
2022-12-18T17:59:41.187Z,-2.20
2022-12-18T18:02:12.477Z,-2.00
2022-12-18T18:04:42.845Z,-2.10
2022-12-18T18:07:11.276Z,-2.00
2022-12-18T18:09:39.630Z,-2.10
2022-12-18T18:12:26.013Z,-2.00
2022-12-18T18:14:54.638Z,-1.90
2022-12-18T18:17:24.480Z,-2.00
2022-12-18T18:19:54.126Z,-2.00
2022-12-18T18:22:24.480Z,-2.00
2022-12-18T18:24:53.019Z,-2.00
2022-12-18T18:27:21.278Z,-1.90
2022-12-18T18:29:49.957Z,-1.90
2022-12-18T18:32:18.236Z,-1.90
2022-12-18T18:34:47.489Z,-1.90
2022-12-18T18:37:17.473Z,-1.80
2022-12-18T18:39:46.250Z,-1.90
2022-12-18T18:42:14.950Z,-1.80
2022-12-18T18:44:48.908Z,-1.80
2022-12-18T18:47:17.494Z,-1.90
2022-12-18T18:49:49.383Z,-1.90
2022-12-18T18:52:19.691Z,-1.80
2022-12-18T18:55:11.554Z,-1.90
2022-12-18T18:57:38.809Z,-1.60
2022-12-18T19:00:10.733Z,-1.80
2022-12-18T19:02:40.475Z,-1.80
2022-12-18T19:05:09.735Z,-1.70
2022-12-18T19:07:40.535Z,-1.80
2022-12-18T19:10:09.824Z,-1.60
2022-12-18T19:12:55.648Z,-1.60
2022-12-18T19:15:24.023Z,-1.60
2022-12-18T19:17:54.793Z,-1.50
2022-12-18T19:20:23.651Z,-1.50
2022-12-18T19:22:55.599Z,-1.60
2022-12-18T19:25:40.557Z,-1.60
2022-12-18T19:28:21.408Z,-1.60
2022-12-18T19:30:57.314Z,-1.50
2022-12-18T19:33:45.425Z,-1.60
2022-12-18T19:36:24.182Z,-1.50
2022-12-18T19:38:59.630Z,-1.50
2022-12-18T19:41:32.038Z,-1.30
2022-12-18T19:44:08.134Z,-1.60
2022-12-18T19:46:41.830Z,-1.60
2022-12-18T19:49:11.772Z,-1.60
2022-12-18T19:51:46.281Z,-1.70
2022-12-18T19:54:17.397Z,-1.60
2022-12-18T19:56:46.782Z,-1.60
2022-12-18T19:59:15.353Z,-1.60
2022-12-18T20:01:46.119Z,-1.40
2022-12-18T20:04:14.555Z,-1.50
2022-12-18T20:06:51.585Z,-1.50
2022-12-18T20:09:23.274Z,-1.50
2022-12-18T20:11:52.398Z,-1.60
2022-12-18T20:14:23.551Z,-1.60
2022-12-18T20:16:53.730Z,-1.60
2022-12-18T20:19:26.116Z,-1.60
2022-12-18T20:21:54.568Z,-1.60
2022-12-18T20:24:25.340Z,-1.90
2022-12-18T20:26:54.282Z,-1.60
2022-12-18T20:29:22.934Z,-1.50
2022-12-18T20:31:51.337Z,-1.50
2022-12-18T20:34:19.691Z,-1.40
2022-12-18T20:36:48.939Z,-1.40
2022-12-18T20:39:17.959Z,-1.30
2022-12-18T20:41:50.930Z,-1.30
2022-12-18T20:44:22.837Z,-1.30
2022-12-18T20:46:54.548Z,-1.30
2022-12-18T20:49:25.692Z,-1.30
2022-12-18T20:51:58.428Z,-1.40
2022-12-18T20:54:31.021Z,-1.50
2022-12-18T20:57:01.540Z,-1.40
2022-12-18T20:59:29.932Z,-1.40
2022-12-18T21:01:58.691Z,-1.40
2022-12-18T21:04:27.648Z,-1.20
2022-12-18T21:07:02.318Z,-1.30
2022-12-18T21:09:38.114Z,-1.30
2022-12-18T21:12:40.470Z,-1.30
2022-12-18T21:15:14.071Z,-1.30
2022-12-18T21:17:44.988Z,-1.20
2022-12-18T21:20:18.039Z,-1.10
2022-12-18T21:22:49.620Z,-1.00
2022-12-18T21:25:18.202Z,-1.00
2022-12-18T21:27:48.391Z,-1.00
2022-12-18T21:30:17.281Z,-0.80
2022-12-18T21:32:45.802Z,-0.90
2022-12-18T21:35:14.812Z,-0.80
2022-12-18T21:37:47.523Z,-0.80
2022-12-18T21:40:16.186Z,-0.80
2022-12-18T21:43:19.421Z,-0.80
2022-12-18T21:45:51.250Z,-0.80
2022-12-18T21:48:20.310Z,-0.70
2022-12-18T21:50:49.025Z,-0.70
2022-12-18T21:53:19.313Z,-0.50
2022-12-18T21:55:48.587Z,-0.60
2022-12-18T21:58:19.919Z,-0.60
2022-12-18T22:00:48.983Z,-0.60
2022-12-18T22:03:19.376Z,-0.60
2022-12-18T22:06:00.653Z,-0.70
2022-12-18T22:08:43.725Z,-0.70
2022-12-18T22:11:14.472Z,-0.70
2022-12-18T22:13:47.486Z,-0.70
2022-12-18T22:16:16.832Z,-0.80
2022-12-18T22:18:47.127Z,-0.80
2022-12-18T22:21:29.386Z,-0.70
2022-12-18T22:24:01.226Z,-0.70
2022-12-18T22:26:38.025Z,-0.60
2022-12-18T22:29:34.372Z,-0.60
2022-12-18T22:32:03.667Z,-0.60
2022-12-18T22:34:36.422Z,-0.60
2022-12-18T22:37:05.555Z,-0.60
2022-12-18T22:39:34.301Z,-0.70
2022-12-18T22:42:06.729Z,-0.70
2022-12-18T22:44:37.003Z,-0.60
2022-12-18T22:47:07.440Z,-0.60
2022-12-18T22:49:37.211Z,-0.30
2022-12-18T22:52:09.322Z,-0.50
2022-12-18T22:54:38.822Z,-0.40
2022-12-18T22:57:07.733Z,-0.40
2022-12-18T22:59:38.631Z,-0.40
2022-12-18T23:02:07.282Z,-0.30
2022-12-18T23:04:36.919Z,-0.30
2022-12-18T23:07:05.808Z,-0.30
2022-12-18T23:09:35.289Z,-0.40
2022-12-18T23:12:04.313Z,-0.40
2022-12-18T23:14:33.559Z,-0.30
2022-12-18T23:17:03.821Z,-0.30
2022-12-18T23:19:32.481Z,-0.30
2022-12-18T23:22:03.513Z,-0.30
2022-12-18T23:24:35.111Z,-0.20
2022-12-18T23:27:05.743Z,-0.20
2022-12-18T23:29:38.564Z,-0.10
2022-12-18T23:32:09.101Z,-0.10
2022-12-18T23:34:38.286Z,0.00
2022-12-18T23:37:06.589Z,0.00
2022-12-18T23:39:35.872Z,0.10
2022-12-18T23:42:05.238Z,0.10
2022-12-18T23:44:34.554Z,0.10
2022-12-18T23:47:07.120Z,0.10
2022-12-18T23:52:23.878Z,0.10
2022-12-18T23:54:52.610Z,0.20
2022-12-18T23:57:21.808Z,0.20
